CCGS Cape Mckay — CFG7703 — position and weather

sailwx.info

Track history (hours):
 
Tides and Currents Weather Stations Pressure Air Temp Water Temp Dewpoint Dewpoint Depression Visibility Wind Speed Wind Dir Waves Ship Positions

CCGS Cape Mckay

Last reported at 2018-Feb-19 22:17 UTC. Time now 2018-Feb-24 00:03 UTC.
Position N 48°50' W 125°08'.

Length 16 m.

Type: SAR. MMSI: 316004106.

Date/timePositionNaut miles runAvg speedWind from/ knotsBaromVisibWave heightAir tempDewpointWater temp
2018-Feb-19 22:17N 48°50' W 125°08'0 0.0
2018-Feb-19 21:44N 48°50' W 125°08'  
2018-Feb-16 22:52N 48°52' W 125°07'1 1.1
2018-Feb-16 22:09N 48°53' W 125°06'1 4.9
2018-Feb-16 21:58N 48°52' W 125°07'0 0.4
2018-Feb-16 21:25N 48°52' W 125°07'2 0.0
2018-Feb-14 22:13N 48°52' W 125°10'524.3
2018-Feb-14 22:00N 48°53' W 125°18'1019.5
2018-Feb-14 21:31N 48°54' W 125°32'2 4.7
2018-Feb-14 21:00N 48°56' W 125°32'0 0.8
2018-Feb-14 20:30N 48°57' W 125°33'0 0.0
2018-Feb-14 20:00N 48°57' W 125°33'0 0.0
2018-Feb-14 19:30N 48°57' W 125°33'510.9
2018-Feb-14 19:00N 48°54' W 125°25'12 0.3
2018-Feb-12 23:53N 48°50' W 125°08'0 0.2
2018-Feb-12 23:29N 48°50' W 125°08'0 0.1
2018-Feb-12 22:51N 48°50' W 125°08'0 0.2
2018-Feb-12 22:26N 48°50' W 125°08'0 0.7
2018-Feb-12 21:59N 48°50' W 125°09'0 0.4
2018-Feb-12 21:03N 48°50' W 125°08'  
Track history (hours):
 
Tides and Currents Weather Stations Pressure Air Temp Water Temp Dewpoint Dewpoint Depression Visibility Wind Speed Wind Dir Waves Ship Positions

CCGS Cape Mckay

Last reported at 2018-Feb-19 22:17 UTC. Time now 2018-Feb-24 00:03 UTC.
Position N 48°50' W 125°08'.

Length 16 m.

Type: SAR. MMSI: 316004106.

Date/timePositionNaut miles runAvg speedWind from/ knotsBaromVisibWave heightAir tempDewpointWater temp
2018-Feb-19 22:17N 48°50' W 125°08'0 0.0
2018-Feb-19 21:44N 48°50' W 125°08'  
2018-Feb-16 22:52N 48°52' W 125°07'1 1.1
2018-Feb-16 22:09N 48°53' W 125°06'1 4.9
2018-Feb-16 21:58N 48°52' W 125°07'0 0.4
2018-Feb-16 21:25N 48°52' W 125°07'2 0.0
2018-Feb-14 22:13N 48°52' W 125°10'524.3
2018-Feb-14 22:00N 48°53' W 125°18'1019.5
2018-Feb-14 21:31N 48°54' W 125°32'2 4.7
2018-Feb-14 21:00N 48°56' W 125°32'0 0.8
2018-Feb-14 20:30N 48°57' W 125°33'0 0.0
2018-Feb-14 20:00N 48°57' W 125°33'0 0.0
2018-Feb-14 19:30N 48°57' W 125°33'510.9
2018-Feb-14 19:00N 48°54' W 125°25'12 0.3
2018-Feb-12 23:53N 48°50' W 125°08'0 0.2
2018-Feb-12 23:29N 48°50' W 125°08'0 0.1
2018-Feb-12 22:51N 48°50' W 125°08'0 0.2
2018-Feb-12 22:26N 48°50' W 125°08'0 0.7
2018-Feb-12 21:59N 48°50' W 125°09'0 0.4
2018-Feb-12 21:03N 48°50' W 125°08'  

Dump ship's entire track history